sensor_id;sensor_type;location;lat;lon;timestamp;pressure;altitude;pressure_sealevel;temperature;humidity
38786;BME280;24535;45.508;12.252;2023-12-22T00:02:21;99881.84;;;12.63;51.53
38786;BME280;24535;45.508;12.252;2023-12-22T00:04:51;99929.72;;;12.60;51.50
38786;BME280;24535;45.508;12.252;2023-12-22T00:07:37;99854.91;;;12.60;51.90
38786;BME280;24535;45.508;12.252;2023-12-22T00:10:41;99881.59;;;12.57;51.50
38786;BME280;24535;45.508;12.252;2023-12-22T00:13:19;99861.97;;;12.59;51.05
38786;BME280;24535;45.508;12.252;2023-12-22T00:19:03;99878.13;;;12.56;50.91
38786;BME280;24535;45.508;12.252;2023-12-22T00:21:29;99858.63;;;12.57;51.09
38786;BME280;24535;45.508;12.252;2023-12-22T00:23:55;99887.97;;;12.54;50.94
38786;BME280;24535;45.508;12.252;2023-12-22T00:26:44;99864.91;;;12.56;51.98
38786;BME280;24535;45.508;12.252;2023-12-22T00:32:28;99866.00;;;12.54;51.49
38786;BME280;24535;45.508;12.252;2023-12-22T00:35:16;99895.06;;;12.54;50.80
38786;BME280;24535;45.508;12.252;2023-12-22T00:37:50;99881.59;;;12.57;51.46
38786;BME280;24535;45.508;12.252;2023-12-22T00:40:16;99877.66;;;12.51;51.04
38786;BME280;24535;45.508;12.252;2023-12-22T00:43:20;99886.31;;;12.53;51.03
38786;BME280;24535;45.508;12.252;2023-12-22T00:45:46;99876.31;;;12.57;51.31
38786;BME280;24535;45.508;12.252;2023-12-22T00:48:14;99903.81;;;12.54;51.10
38786;BME280;24535;45.508;12.252;2023-12-22T00:50:44;99872.94;;;12.55;50.77
38786;BME280;24535;45.508;12.252;2023-12-22T00:53:15;99857.25;;;12.53;51.23
38786;BME280;24535;45.508;12.252;2023-12-22T00:55:41;99896.59;;;12.56;50.82
38786;BME280;24535;45.508;12.252;2023-12-22T00:58:06;99907.19;;;12.56;50.79
38786;BME280;24535;45.508;12.252;2023-12-22T01:00:32;99886.03;;;12.56;50.79
38786;BME280;24535;45.508;12.252;2023-12-22T01:02:57;99856.97;;;12.56;50.62
38786;BME280;24535;45.508;12.252;2023-12-22T01:05:23;99874.75;;;12.54;51.22
38786;BME280;24535;45.508;12.252;2023-12-22T01:07:51;99865.84;;;12.55;50.73
38786;BME280;24535;45.508;12.252;2023-12-22T01:10:16;99846.25;;;12.58;50.59
38786;BME280;24535;45.508;12.252;2023-12-22T01:12:45;99865.03;;;12.55;50.68
38786;BME280;24535;45.508;12.252;2023-12-22T01:15:49;99892.84;;;12.59;50.57
38786;BME280;24535;45.508;12.252;2023-12-22T01:18:14;99883.25;;;12.58;51.46
38786;BME280;24535;45.508;12.252;2023-12-22T01:20:40;99863.22;;;12.55;51.06
38786;BME280;24535;45.508;12.252;2023-12-22T01:23:08;99868.50;;;12.55;50.48
38786;BME280;24535;45.508;12.252;2023-12-22T01:25:44;99863.09;;;12.57;51.67
38786;BME280;24535;45.508;12.252;2023-12-22T01:28:15;99860.56;;;12.55;51.09
38786;BME280;24535;45.508;12.252;2023-12-22T01:30:42;99881.03;;;12.53;51.16
38786;BME280;24535;45.508;12.252;2023-12-22T01:33:10;99870.31;;;12.55;51.38
38786;BME280;24535;45.508;12.252;2023-12-22T01:35:38;99855.16;;;12.57;50.70
38786;BME280;24535;45.508;12.252;2023-12-22T01:38:41;99886.88;;;12.57;51.47
38786;BME280;24535;45.508;12.252;2023-12-22T01:41:08;99885.88;;;12.58;50.61
38786;BME280;24535;45.508;12.252;2023-12-22T01:43:41;99868.50;;;12.55;50.45
38786;BME280;24535;45.508;12.252;2023-12-22T01:46:12;99864.34;;;12.53;51.45
38786;BME280;24535;45.508;12.252;2023-12-22T01:48:38;99876.41;;;12.55;51.25
38786;BME280;24535;45.508;12.252;2023-12-22T01:51:10;99889.50;;;12.57;51.18
38786;BME280;24535;45.508;12.252;2023-12-22T01:53:35;99863.22;;;12.55;50.94
38786;BME280;24535;45.508;12.252;2023-12-22T01:56:02;99864.19;;;12.54;50.41
38786;BME280;24535;45.508;12.252;2023-12-22T01:58:29;99845.69;;;12.54;50.43
38786;BME280;24535;45.508;12.252;2023-12-22T02:00:56;99854.59;;;12.53;50.98
38786;BME280;24535;45.508;12.252;2023-12-22T02:03:22;99856.53;;;12.51;50.50
38786;BME280;24535;45.508;12.252;2023-12-22T02:05:51;99886.31;;;12.53;51.05
38786;BME280;24535;45.508;12.252;2023-12-22T02:08:18;99876.00;;;12.50;50.33
38786;BME280;24535;45.508;12.252;2023-12-22T02:10:43;99874.91;;;12.53;50.80
38786;BME280;24535;45.508;12.252;2023-12-22T02:13:10;99867.97;;;12.52;50.78
38786;BME280;24535;45.508;12.252;2023-12-22T02:15:36;99882.13;;;12.51;50.54
38786;BME280;24535;45.508;12.252;2023-12-22T02:18:19;99870.72;;;12.50;50.47
38786;BME280;24535;45.508;12.252;2023-12-22T02:20:47;99860.97;;;12.51;50.21
38786;BME280;24535;45.508;12.252;2023-12-22T02:23:12;99851.53;;;12.48;50.21
38786;BME280;24535;45.508;12.252;2023-12-22T02:25:38;99847.91;;;12.49;50.36
38786;BME280;24535;45.508;12.252;2023-12-22T02:28:07;99841.66;;;12.50;49.91
38786;BME280;24535;45.508;12.252;2023-12-22T02:31:05;99853.22;;;12.49;50.01
38786;BME280;24535;45.508;12.252;2023-12-22T02:37:00;99822.47;;;12.48;49.64
38786;BME280;24535;45.508;12.252;2023-12-22T02:39:28;99798.97;;;12.45;50.78
38786;BME280;24535;45.508;12.252;2023-12-22T02:41:54;99727.25;;;12.40;49.45
38786;BME280;24535;45.508;12.252;2023-12-22T03:07:58;99841.22;;;12.35;50.77
38786;BME280;24535;45.508;12.252;2023-12-22T03:18:38;99809.97;;;12.41;51.36
38786;BME280;24535;45.508;12.252;2023-12-22T03:31:31;99779.38;;;12.38;50.70
38786;BME280;24535;45.508;12.252;2023-12-22T04:27:23;99869.31;;;12.46;50.50
38786;BME280;24535;45.508;12.252;2023-12-22T04:36:26;99873.09;;;12.44;50.69
38786;BME280;24535;45.508;12.252;2023-12-22T04:39:00;99860.97;;;12.41;50.71
38786;BME280;24535;45.508;12.252;2023-12-22T04:41:26;99863.34;;;12.44;50.38
38786;BME280;24535;45.508;12.252;2023-12-22T04:44:29;99857.78;;;12.47;50.26
38786;BME280;24535;45.508;12.252;2023-12-22T04:50:00;99837.50;;;12.48;49.69
38786;BME280;24535;45.508;12.252;2023-12-22T04:52:31;99852.63;;;12.46;49.91
38786;BME280;24535;45.508;12.252;2023-12-22T04:58:00;99886.16;;;12.45;50.20
38786;BME280;24535;45.508;12.252;2023-12-22T05:21:04;99860.72;;;12.44;49.87
38786;BME280;24535;45.508;12.252;2023-12-22T05:52:49;99884.88;;;12.40;50.18
38786;BME280;24535;45.508;12.252;2023-12-22T06:05:58;99889.47;;;12.37;49.94
38786;BME280;24535;45.508;12.252;2023-12-22T06:21:15;99958.00;;;12.39;49.82
38786;BME280;24535;45.508;12.252;2023-12-22T06:30:46;99986.22;;;12.38;50.35
38786;BME280;24535;45.508;12.252;2023-12-22T06:42:59;99932.56;;;12.38;49.46
38786;BME280;24535;45.508;12.252;2023-12-22T06:45:24;99927.00;;;12.41;49.48
38786;BME280;24535;45.508;12.252;2023-12-22T06:51:31;99938.66;;;12.38;49.79
38786;BME280;24535;45.508;12.252;2023-12-22T06:54:09;99971.66;;;12.44;49.27
38786;BME280;24535;45.508;12.252;2023-12-22T07:01:32;99983.31;;;12.42;49.47
38786;BME280;24535;45.508;12.252;2023-12-22T07:06:25;99978.88;;;12.42;49.71
38786;BME280;24535;45.508;12.252;2023-12-22T07:11:24;100016.69;;;12.43;49.24
38786;BME280;24535;45.508;12.252;2023-12-22T07:13:49;100026.66;;;12.39;48.99
38786;BME280;24535;45.508;12.252;2023-12-22T07:16:15;100024.75;;;12.41;49.26
38786;BME280;24535;45.508;12.252;2023-12-22T07:18:40;100015.84;;;12.42;49.29
38786;BME280;24535;45.508;12.252;2023-12-22T07:21:06;100026.56;;;12.41;48.98
38786;BME280;24535;45.508;12.252;2023-12-22T07:23:32;100056.28;;;12.43;49.39
38786;BME280;24535;45.508;12.252;2023-12-22T07:25:58;100065.91;;;12.44;49.45
38786;BME280;24535;45.508;12.252;2023-12-22T07:28:23;100086.19;;;12.43;49.20
38786;BME280;24535;45.508;12.252;2023-12-22T07:30:49;100084.41;;;12.44;49.51
38786;BME280;24535;45.508;12.252;2023-12-22T07:33:15;100085.50;;;12.41;49.14
38786;BME280;24535;45.508;12.252;2023-12-22T07:35:40;100054.38;;;12.45;49.90
38786;BME280;24535;45.508;12.252;2023-12-22T07:38:05;100064.22;;;12.43;49.82
38786;BME280;24535;45.508;12.252;2023-12-22T07:40:31;100049.19;;;12.43;49.04
38786;BME280;24535;45.508;12.252;2023-12-22T07:42:57;100046.69;;;12.42;48.96
38786;BME280;24535;45.508;12.252;2023-12-22T07:45:22;100037.81;;;12.43;49.35
38786;BME280;24535;45.508;12.252;2023-12-22T07:47:48;100048.38;;;12.43;49.10
38786;BME280;24535;45.508;12.252;2023-12-22T07:50:13;100055.22;;;12.45;49.14
38786;BME280;24535;45.508;12.252;2023-12-22T07:52:39;100048.25;;;12.44;49.50
38786;BME280;24535;45.508;12.252;2023-12-22T07:55:08;100065.91;;;12.44;49.37
38786;BME280;24535;45.508;12.252;2023-12-22T07:57:38;100062.31;;;12.45;49.38
38786;BME280;24535;45.508;12.252;2023-12-22T08:00:07;100052.72;;;12.44;49.19
38786;BME280;24535;45.508;12.252;2023-12-22T08:02:34;100050.75;;;12.46;49.14
38786;BME280;24535;45.508;12.252;2023-12-22T08:05:00;100065.63;;;12.47;49.07
38786;BME280;24535;45.508;12.252;2023-12-22T08:07:25;100058.81;;;12.44;49.58
38786;BME280;24535;45.508;12.252;2023-12-22T08:09:51;100052.31;;;12.48;49.86
38786;BME280;24535;45.508;12.252;2023-12-22T08:12:16;100049.66;;;12.48;49.40
38786;BME280;24535;45.508;12.252;2023-12-22T08:14:41;100049.78;;;12.47;49.75
38786;BME280;24535;45.508;12.252;2023-12-22T08:17:07;100046.31;;;12.46;49.51
38786;BME280;24535;45.508;12.252;2023-12-22T08:19:32;100065.38;;;12.50;49.40
38786;BME280;24535;45.508;12.252;2023-12-22T08:21:58;100073.31;;;12.50;49.57
38786;BME280;24535;45.508;12.252;2023-12-22T08:24:23;100089.97;;;12.50;48.60
38786;BME280;24535;45.508;12.252;2023-12-22T08:26:52;100108.38;;;12.52;49.98
38786;BME280;24535;45.508;12.252;2023-12-22T08:29:17;100101.38;;;12.51;49.92
38786;BME280;24535;45.508;12.252;2023-12-22T08:31:44;100092.63;;;12.50;49.72
38786;BME280;24535;45.508;12.252;2023-12-22T08:34:10;100098.34;;;12.55;49.44
38786;BME280;24535;45.508;12.252;2023-12-22T08:36:35;100106.28;;;12.55;49.89
38786;BME280;24535;45.508;12.252;2023-12-22T08:39:00;100133.41;;;12.57;49.52
38786;BME280;24535;45.508;12.252;2023-12-22T08:41:26;100140.50;;;12.57;49.07
38786;BME280;24535;45.508;12.252;2023-12-22T08:43:52;100150.94;;;12.58;49.41
38786;BME280;24535;45.508;12.252;2023-12-22T08:46:17;100149.97;;;12.59;49.95
38786;BME280;24535;45.508;12.252;2023-12-22T08:48:43;100144.56;;;12.61;49.51
38786;BME280;24535;45.508;12.252;2023-12-22T08:51:09;100138.31;;;12.62;49.65
38786;BME280;24535;45.508;12.252;2023-12-22T08:53:34;100133.84;;;12.62;49.47
38786;BME280;24535;45.508;12.252;2023-12-22T08:56:02;100131.94;;;12.65;50.10
38786;BME280;24535;45.508;12.252;2023-12-22T08:58:29;100118.84;;;12.63;49.98
38786;BME280;24535;45.508;12.252;2023-12-22T09:00:54;100116.06;;;12.65;49.28
38786;BME280;24535;45.508;12.252;2023-12-22T09:03:19;100109.81;;;12.66;49.44
38786;BME280;24535;45.508;12.252;2023-12-22T09:05:45;100128.06;;;12.69;49.63
38786;BME280;24535;45.508;12.252;2023-12-22T09:08:12;100141.84;;;12.72;49.08
38786;BME280;24535;45.508;12.252;2023-12-22T09:10:46;100130.31;;;12.73;49.25
38786;BME280;24535;45.508;12.252;2023-12-22T09:13:11;100127.41;;;12.76;50.02
38786;BME280;24535;45.508;12.252;2023-12-22T09:15:37;100125.78;;;12.85;50.19
38786;BME280;24535;45.508;12.252;2023-12-22T09:18:02;100113.69;;;12.92;50.42
38786;BME280;24535;45.508;12.252;2023-12-22T09:20:28;100119.59;;;13.05;49.88
38786;BME280;24535;45.508;12.252;2023-12-22T09:22:55;100120.91;;;13.21;50.67
38786;BME280;24535;45.508;12.252;2023-12-22T09:27:48;100121.03;;;13.98;52.35
38786;BME280;24535;45.508;12.252;2023-12-22T09:30:13;100124.78;;;14.34;51.59
38786;BME280;24535;45.508;12.252;2023-12-22T09:32:38;100126.41;;;14.65;50.89
38786;BME280;24535;45.508;12.252;2023-12-22T09:38:10;100157.72;;;14.89;48.75
38786;BME280;24535;45.508;12.252;2023-12-22T09:46:33;100184.50;;;14.95;49.07
38786;BME280;24535;45.508;12.252;2023-12-22T09:55:45;100179.81;;;15.17;49.01
38786;BME280;24535;45.508;12.252;2023-12-22T10:01:02;100163.34;;;15.13;48.37
38786;BME280;24535;45.508;12.252;2023-12-22T10:03:31;100127.31;;;15.11;48.12
38786;BME280;24535;45.508;12.252;2023-12-22T10:12:41;100127.78;;;14.69;48.24
38786;BME280;24535;45.508;12.252;2023-12-22T10:18:31;100098.09;;;14.46;47.87
38786;BME280;24535;45.508;12.252;2023-12-22T10:21:28;100090.00;;;14.38;47.68
38786;BME280;24535;45.508;12.252;2023-12-22T10:50:36;100092.44;;;13.92;48.57
38786;BME280;24535;45.508;12.252;2023-12-22T11:07:29;100066.41;;;13.88;48.74
38786;BME280;24535;45.508;12.252;2023-12-22T11:10:03;100056.53;;;13.90;49.38
38786;BME280;24535;45.508;12.252;2023-12-22T11:12:38;100045.06;;;13.89;48.63
38786;BME280;24535;45.508;12.252;2023-12-22T11:15:05;100065.28;;;13.90;48.92
38786;BME280;24535;45.508;12.252;2023-12-22T11:17:34;100059.28;;;13.88;49.24
38786;BME280;24535;45.508;12.252;2023-12-22T11:20:01;100061.50;;;13.93;49.13
38786;BME280;24535;45.508;12.252;2023-12-22T11:22:28;100065.28;;;13.90;49.00
38786;BME280;24535;45.508;12.252;2023-12-22T11:24:56;100065.13;;;13.92;49.28
38786;BME280;24535;45.508;12.252;2023-12-22T11:27:26;100064.31;;;13.91;49.61
38786;BME280;24535;45.508;12.252;2023-12-22T11:30:01;100066.38;;;13.97;49.75
38786;BME280;24535;45.508;12.252;2023-12-22T11:32:28;100057.75;;;13.95;49.51
38786;BME280;24535;45.508;12.252;2023-12-22T11:34:54;100072.66;;;13.96;49.44
38786;BME280;24535;45.508;12.252;2023-12-22T11:37:22;100055.66;;;13.99;49.99
38786;BME280;24535;45.508;12.252;2023-12-22T11:39:47;100062.06;;;13.96;49.62
38786;BME280;24535;45.508;12.252;2023-12-22T11:42:27;100067.25;;;13.98;49.55
38786;BME280;24535;45.508;12.252;2023-12-22T11:44:53;100061.63;;;14.01;49.06
38786;BME280;24535;45.508;12.252;2023-12-22T11:47:23;100057.31;;;14.00;49.46
38786;BME280;24535;45.508;12.252;2023-12-22T11:49:48;100053.56;;;14.02;48.88
38786;BME280;24535;45.508;12.252;2023-12-22T11:52:17;100045.75;;;14.01;49.62
38786;BME280;24535;45.508;12.252;2023-12-22T11:54:46;100063.19;;;14.03;49.33
38786;BME280;24535;45.508;12.252;2023-12-22T11:57:48;100067.38;;;14.06;48.99
38786;BME280;24535;45.508;12.252;2023-12-22T12:02:54;100093.84;;;14.06;49.49
38786;BME280;24535;45.508;12.252;2023-12-22T12:05:20;100060.38;;;14.05;49.26
38786;BME280;24535;45.508;12.252;2023-12-22T12:07:46;100075.31;;;14.06;49.19
38786;BME280;24535;45.508;12.252;2023-12-22T12:13:08;100073.19;;;14.09;49.71
38786;BME280;24535;45.508;12.252;2023-12-22T12:15:34;100061.66;;;14.10;49.34
38786;BME280;24535;45.508;12.252;2023-12-22T12:18:00;100068.59;;;14.12;49.08
38786;BME280;24535;45.508;12.252;2023-12-22T12:20:26;100076.41;;;14.13;49.13
38786;BME280;24535;45.508;12.252;2023-12-22T12:22:53;100086.03;;;14.14;49.74
38786;BME280;24535;45.508;12.252;2023-12-22T12:25:22;100076.28;;;14.15;49.59
38786;BME280;24535;45.508;12.252;2023-12-22T12:27:51;100070.00;;;14.16;49.83
38786;BME280;24535;45.508;12.252;2023-12-22T12:30:26;100060.06;;;14.18;48.97
38786;BME280;24535;45.508;12.252;2023-12-22T12:32:51;100071.66;;;14.17;49.63
38786;BME280;24535;45.508;12.252;2023-12-22T12:35:18;100069.00;;;14.17;49.04
38786;BME280;24535;45.508;12.252;2023-12-22T12:37:44;100064.41;;;14.19;49.20
38786;BME280;24535;45.508;12.252;2023-12-22T12:40:11;100051.84;;;14.21;49.15
38786;BME280;24535;45.508;12.252;2023-12-22T12:42:36;100040.25;;;14.22;49.72
38786;BME280;24535;45.508;12.252;2023-12-22T12:45:07;100043.78;;;14.22;49.53
38786;BME280;24535;45.508;12.252;2023-12-22T12:47:33;100053.38;;;14.23;49.42
38786;BME280;24535;45.508;12.252;2023-12-22T12:50:02;100070.13;;;14.24;50.00
38786;BME280;24535;45.508;12.252;2023-12-22T12:52:28;100067.31;;;14.25;49.64
38786;BME280;24535;45.508;12.252;2023-12-22T12:54:54;100053.22;;;14.25;49.58
38786;BME280;24535;45.508;12.252;2023-12-22T12:57:21;100059.50;;;14.24;49.85
38786;BME280;24535;45.508;12.252;2023-12-22T12:59:48;100060.06;;;14.27;49.64
38786;BME280;24535;45.508;12.252;2023-12-22T13:02:15;100063.28;;;14.31;49.65
38786;BME280;24535;45.508;12.252;2023-12-22T13:04:41;100054.50;;;14.30;49.32
38786;BME280;24535;45.508;12.252;2023-12-22T13:07:07;100051.13;;;14.28;50.06
38786;BME280;24535;45.508;12.252;2023-12-22T13:09:34;100054.63;;;14.29;49.43
38786;BME280;24535;45.508;12.252;2023-12-22T13:12:00;100043.03;;;14.30;49.72
38786;BME280;24535;45.508;12.252;2023-12-22T13:14:27;100034.25;;;14.29;49.72
38786;BME280;24535;45.508;12.252;2023-12-22T13:16:54;100051.97;;;14.29;50.04
38786;BME280;24535;45.508;12.252;2023-12-22T13:19:23;100014.59;;;14.32;50.17
38786;BME280;24535;45.508;12.252;2023-12-22T13:21:55;100014.44;;;14.33;50.11
38786;BME280;24535;45.508;12.252;2023-12-22T13:24:21;100020.72;;;14.32;50.32
38786;BME280;24535;45.508;12.252;2023-12-22T13:27:01;100029.38;;;14.34;49.97
38786;BME280;24535;45.508;12.252;2023-12-22T13:29:27;100040.81;;;14.35;49.85
38786;BME280;24535;45.508;12.252;2023-12-22T13:31:54;100040.09;;;14.33;50.05
38786;BME280;24535;45.508;12.252;2023-12-22T13:34:19;100013.47;;;14.34;50.20
38786;BME280;24535;45.508;12.252;2023-12-22T13:36:45;100016.81;;;14.37;50.19
38786;BME280;24535;45.508;12.252;2023-12-22T13:39:11;100025.75;;;14.35;50.28
38786;BME280;24535;45.508;12.252;2023-12-22T13:41:39;100011.66;;;14.35;50.17
38786;BME280;24535;45.508;12.252;2023-12-22T13:44:11;100007.09;;;14.18;50.81
38786;BME280;24535;45.508;12.252;2023-12-22T13:46:37;100006.31;;;14.07;51.02
38786;BME280;24535;45.508;12.252;2023-12-22T13:49:07;100007.13;;;14.08;51.02
38786;BME280;24535;45.508;12.252;2023-12-22T13:54:54;99988.56;;;14.18;50.82
38786;BME280;24535;45.508;12.252;2023-12-22T13:57:22;99997.88;;;14.22;51.11
38786;BME280;24535;45.508;12.252;2023-12-22T13:59:51;99997.88;;;14.22;51.15
38786;BME280;24535;45.508;12.252;2023-12-22T14:02:19;100001.22;;;14.24;51.44
38786;BME280;24535;45.508;12.252;2023-12-22T14:04:45;99995.09;;;14.23;51.26
38786;BME280;24535;45.508;12.252;2023-12-22T14:07:11;100000.94;;;14.27;51.72
38786;BME280;24535;45.508;12.252;2023-12-22T14:09:38;99996.91;;;14.23;51.10
38786;BME280;24535;45.508;12.252;2023-12-22T14:12:04;100010.56;;;14.28;51.13
38786;BME280;24535;45.508;12.252;2023-12-22T14:14:30;99999.97;;;14.28;51.26
38786;BME280;24535;45.508;12.252;2023-12-22T14:16:56;100005.25;;;14.28;51.22
38786;BME280;24535;45.508;12.252;2023-12-22T14:19:22;100009.44;;;14.30;52.01
38786;BME280;24535;45.508;12.252;2023-12-22T14:21:48;100006.53;;;14.24;51.39
38786;BME280;24535;45.508;12.252;2023-12-22T14:24:13;100014.63;;;14.22;51.46
38786;BME280;24535;45.508;12.252;2023-12-22T14:29:49;99996.50;;;14.18;52.05
38786;BME280;24535;45.508;12.252;2023-12-22T14:32:14;99999.03;;;14.19;51.90
38786;BME280;24535;45.508;12.252;2023-12-22T14:34:41;100018.56;;;14.18;52.37
38786;BME280;24535;45.508;12.252;2023-12-22T14:37:06;100021.03;;;14.20;52.67
38786;BME280;24535;45.508;12.252;2023-12-22T14:39:32;100022.44;;;14.24;52.23
38786;BME280;24535;45.508;12.252;2023-12-22T14:42:01;100020.78;;;14.13;52.20
38786;BME280;24535;45.508;12.252;2023-12-22T14:44:28;100025.78;;;14.16;52.38
38786;BME280;24535;45.508;12.252;2023-12-22T14:46:53;100013.66;;;14.14;52.27
38786;BME280;24535;45.508;12.252;2023-12-22T14:49:19;100014.38;;;14.16;52.82
38786;BME280;24535;45.508;12.252;2023-12-22T14:55:10;100003.06;;;14.23;52.67
38786;BME280;24535;45.508;12.252;2023-12-22T14:57:47;99997.47;;;14.17;52.62
38786;BME280;24535;45.508;12.252;2023-12-22T15:00:14;100017.56;;;14.19;52.41
38786;BME280;24535;45.508;12.252;2023-12-22T15:02:51;100029.66;;;14.22;53.29
38786;BME280;24535;45.508;12.252;2023-12-22T15:05:17;100050.88;;;14.22;52.91
38786;BME280;24535;45.508;12.252;2023-12-22T15:07:42;100024.81;;;14.17;52.61
38786;BME280;24535;45.508;12.252;2023-12-22T15:10:11;100018.28;;;14.12;52.81
38786;BME280;24535;45.508;12.252;2023-12-22T15:12:43;100024.69;;;14.09;53.58
38786;BME280;24535;45.508;12.252;2023-12-22T15:15:08;100048.41;;;14.10;53.38
38786;BME280;24535;45.508;12.252;2023-12-22T15:17:34;100048.09;;;14.14;53.03
38786;BME280;24535;45.508;12.252;2023-12-22T15:19:59;100017.16;;;14.14;52.82
38786;BME280;24535;45.508;12.252;2023-12-22T15:22:26;100014.22;;;14.17;52.63
38786;BME280;24535;45.508;12.252;2023-12-22T15:24:52;100028.00;;;14.21;52.65
38786;BME280;24535;45.508;12.252;2023-12-22T15:27:17;100027.72;;;14.24;52.87
38786;BME280;24535;45.508;12.252;2023-12-22T15:29:50;100036.50;;;14.24;52.58
38786;BME280;24535;45.508;12.252;2023-12-22T15:32:16;100024.09;;;14.25;52.56
38786;BME280;24535;45.508;12.252;2023-12-22T15:34:41;100017.81;;;14.26;52.28
38786;BME280;24535;45.508;12.252;2023-12-22T15:37:08;100027.44;;;14.27;52.60
38786;BME280;24535;45.508;12.252;2023-12-22T15:39:34;100039.72;;;14.28;52.08
38786;BME280;24535;45.508;12.252;2023-12-22T15:41:59;100051.41;;;14.25;52.19
38786;BME280;24535;45.508;12.252;2023-12-22T15:44:25;100039.97;;;14.25;52.87
38786;BME280;24535;45.508;12.252;2023-12-22T15:46:50;100054.06;;;14.25;52.74
38786;BME280;24535;45.508;12.252;2023-12-22T15:49:16;100065.66;;;14.24;52.72
38786;BME280;24535;45.508;12.252;2023-12-22T15:51:41;100070.13;;;14.24;52.10
38786;BME280;24535;45.508;12.252;2023-12-22T15:54:13;100058.97;;;14.20;52.97
38786;BME280;24535;45.508;12.252;2023-12-22T15:56:50;100082.97;;;14.19;52.52
38786;BME280;24535;45.508;12.252;2023-12-22T15:59:21;100077.50;;;14.20;52.64
38786;BME280;24535;45.508;12.252;2023-12-22T16:01:51;100052.13;;;14.18;52.58
38786;BME280;24535;45.508;12.252;2023-12-22T16:04:16;100070.66;;;14.18;52.74
38786;BME280;24535;45.508;12.252;2023-12-22T16:06:41;100069.00;;;14.17;52.61
38786;BME280;24535;45.508;12.252;2023-12-22T16:09:07;100060.38;;;14.15;52.58
38786;BME280;24535;45.508;12.252;2023-12-22T16:11:57;100062.19;;;14.14;52.89
38786;BME280;24535;45.508;12.252;2023-12-22T16:14:32;100072.91;;;14.13;51.91
38786;BME280;24535;45.508;12.252;2023-12-22T16:16:57;100044.75;;;14.12;52.26
38786;BME280;24535;45.508;12.252;2023-12-22T16:19:23;100048.09;;;14.14;52.74
38786;BME280;24535;45.508;12.252;2023-12-22T16:21:48;100051.06;;;14.10;52.63
38786;BME280;24535;45.508;12.252;2023-12-22T16:24:20;100056.19;;;14.12;52.89
38786;BME280;24535;45.508;12.252;2023-12-22T16:26:46;100055.09;;;14.15;52.72
38786;BME280;24535;45.508;12.252;2023-12-22T16:29:12;100055.34;;;14.12;53.15
38786;BME280;24535;45.508;12.252;2023-12-22T16:31:40;100056.03;;;14.14;52.24
38786;BME280;24535;45.508;12.252;2023-12-22T16:34:06;100045.59;;;14.12;52.40
38786;BME280;24535;45.508;12.252;2023-12-22T16:36:31;100040.47;;;14.10;52.60
38786;BME280;24535;45.508;12.252;2023-12-22T16:38:57;100047.56;;;14.10;52.59
38786;BME280;24535;45.508;12.252;2023-12-22T16:41:23;100056.34;;;14.10;52.92
38786;BME280;24535;45.508;12.252;2023-12-22T16:43:48;100057.31;;;14.09;52.86
38786;BME280;24535;45.508;12.252;2023-12-22T16:46:19;100044.38;;;14.06;52.58
38786;BME280;24535;45.508;12.252;2023-12-22T16:48:54;100070.84;;;14.06;52.66
38786;BME280;24535;45.508;12.252;2023-12-22T16:51:19;100070.69;;;14.08;52.32
38786;BME280;24535;45.508;12.252;2023-12-22T16:53:45;100051.47;;;14.06;52.75
38786;BME280;24535;45.508;12.252;2023-12-22T16:56:10;100058.44;;;14.07;52.56
38786;BME280;24535;45.508;12.252;2023-12-22T16:58:36;100061.38;;;14.04;52.80
38786;BME280;24535;45.508;12.252;2023-12-22T17:01:04;100065.41;;;14.08;52.72
38786;BME280;24535;45.508;12.252;2023-12-22T17:03:33;100052.44;;;14.05;52.36
38786;BME280;24535;45.508;12.252;2023-12-22T17:06:00;100068.19;;;14.06;52.73
38786;BME280;24535;45.508;12.252;2023-12-22T17:08:27;100051.75;;;14.03;52.30
38786;BME280;24535;45.508;12.252;2023-12-22T17:10:53;100047.44;;;14.02;52.26
38786;BME280;24535;45.508;12.252;2023-12-22T17:13:18;100042.97;;;14.02;52.31
38786;BME280;24535;45.508;12.252;2023-12-22T17:15:44;100060.53;;;14.03;52.75
38786;BME280;24535;45.508;12.252;2023-12-22T17:18:09;100070.28;;;14.03;52.24
38786;BME280;24535;45.508;12.252;2023-12-22T17:20:34;100056.34;;;14.01;53.06
38786;BME280;24535;45.508;12.252;2023-12-22T17:23:00;100035.88;;;14.03;52.20
38786;BME280;24535;45.508;12.252;2023-12-22T17:25:25;100039.78;;;13.99;52.96
38786;BME280;24535;45.508;12.252;2023-12-22T17:27:51;100082.00;;;14.00;53.20
38786;BME280;24535;45.508;12.252;2023-12-22T17:30:16;100051.03;;;14.01;52.34
38786;BME280;24535;45.508;12.252;2023-12-22T17:32:42;100031.13;;;13.97;52.28
38786;BME280;24535;45.508;12.252;2023-12-22T17:35:08;100051.34;;;13.98;52.97
38786;BME280;24535;45.508;12.252;2023-12-22T17:37:36;100038.38;;;13.95;53.11
38786;BME280;24535;45.508;12.252;2023-12-22T17:40:05;100055.09;;;13.95;52.10
38786;BME280;24535;45.508;12.252;2023-12-22T17:42:31;100062.06;;;13.96;52.78
38786;BME280;24535;45.508;12.252;2023-12-22T17:44:56;100053.13;;;13.97;52.28
38786;BME280;24535;45.508;12.252;2023-12-22T17:47:21;100061.94;;;13.98;52.36
38786;BME280;24535;45.508;12.252;2023-12-22T17:49:47;100070.16;;;13.95;52.37
38786;BME280;24535;45.508;12.252;2023-12-22T17:52:15;100052.59;;;13.94;52.76
38786;BME280;24535;45.508;12.252;2023-12-22T17:54:41;100053.28;;;13.96;52.41
38786;BME280;24535;45.508;12.252;2023-12-22T17:57:07;100054.56;;;13.92;52.81
38786;BME280;24535;45.508;12.252;2023-12-22T17:59:38;100090.63;;;13.93;53.07